createdAt,value
2023-01-09T00:01:18.696Z,6.46
2023-01-09T00:03:46.936Z,6.38
2023-01-09T00:06:14.663Z,6.44
2023-01-09T00:08:42.183Z,6.44
2023-01-09T00:11:10.138Z,6.40
2023-01-09T00:13:38.097Z,6.38
2023-01-09T00:16:07.049Z,6.41
2023-01-09T00:18:35.658Z,6.35
2023-01-09T00:21:05.175Z,6.38
2023-01-09T00:23:32.756Z,6.40
2023-01-09T00:26:09.413Z,6.33
2023-01-09T00:28:37.082Z,6.38
2023-01-09T00:31:06.865Z,6.31
2023-01-09T00:33:39.659Z,6.32
2023-01-09T00:36:07.891Z,6.26
2023-01-09T00:38:37.305Z,6.20
2023-01-09T00:41:06.687Z,6.22
2023-01-09T00:43:39.474Z,6.26
2023-01-09T00:46:08.349Z,6.19
2023-01-09T00:48:39.189Z,6.25
2023-01-09T00:51:08.262Z,6.24
2023-01-09T00:53:37.716Z,6.26
2023-01-09T00:56:07.854Z,6.21
2023-01-09T00:58:36.101Z,6.16
2023-01-09T01:01:03.968Z,6.19
2023-01-09T01:03:31.929Z,6.13
2023-01-09T01:06:18.391Z,6.00
2023-01-09T01:08:46.536Z,6.02
2023-01-09T01:11:14.421Z,5.92
2023-01-09T01:13:41.955Z,5.85
2023-01-09T01:16:12.176Z,5.86
2023-01-09T01:18:40.396Z,5.84
2023-01-09T01:21:09.404Z,5.85
2023-01-09T01:23:37.994Z,5.83
2023-01-09T01:26:11.314Z,5.83
2023-01-09T01:28:39.364Z,5.83
2023-01-09T01:31:07.646Z,5.79
2023-01-09T01:33:35.368Z,5.78
2023-01-09T01:36:08.382Z,5.59
2023-01-09T01:38:36.624Z,5.67
2023-01-09T01:41:04.767Z,5.71
2023-01-09T01:43:55.083Z,5.67
2023-01-09T01:46:23.134Z,5.65
2023-01-09T01:48:54.568Z,5.61
2023-01-09T01:51:23.761Z,5.55
2023-01-09T01:53:54.351Z,5.55
2023-01-09T01:56:28.674Z,5.51
2023-01-09T01:59:06.349Z,5.40
2023-01-09T02:01:34.271Z,5.31
2023-01-09T02:04:02.473Z,5.31
2023-01-09T02:06:30.894Z,5.25
2023-01-09T02:08:58.698Z,5.24
2023-01-09T02:11:27.259Z,5.11
2023-01-09T02:13:55.273Z,5.11
2023-01-09T02:16:48.330Z,5.04
2023-01-09T02:19:28.772Z,5.03
2023-01-09T02:22:37.759Z,5.08
2023-01-09T02:25:27.414Z,5.04
2023-01-09T02:28:32.732Z,5.03
2023-01-09T02:31:11.281Z,4.87
2023-01-09T02:34:02.959Z,4.81
2023-01-09T02:36:49.629Z,4.84
2023-01-09T02:39:33.059Z,4.76
2023-01-09T02:42:05.918Z,4.80
2023-01-09T02:44:36.171Z,4.67
2023-01-09T02:47:29.408Z,4.74
2023-01-09T02:50:00.813Z,4.70
2023-01-09T02:52:45.351Z,4.71
2023-01-09T02:55:27.961Z,4.70
2023-01-09T02:58:10.686Z,4.71
2023-01-09T03:01:25.960Z,4.74
2023-01-09T03:04:20.936Z,4.73
2023-01-09T03:07:01.171Z,4.74
2023-01-09T03:09:33.259Z,4.70
2023-01-09T03:12:14.692Z,4.71
2023-01-09T03:14:45.946Z,4.66
2023-01-09T03:17:16.824Z,4.72
2023-01-09T03:19:45.589Z,4.74
2023-01-09T03:22:13.603Z,4.71
2023-01-09T03:24:41.135Z,4.71
2023-01-09T03:27:09.531Z,4.65
2023-01-09T03:29:37.595Z,4.65
2023-01-09T03:32:05.373Z,4.61
2023-01-09T03:34:33.209Z,4.65
2023-01-09T03:37:01.797Z,4.66
2023-01-09T03:39:29.377Z,4.58
2023-01-09T03:41:57.380Z,4.61
2023-01-09T03:44:25.107Z,4.60
2023-01-09T03:46:52.621Z,4.59
2023-01-09T03:49:21.667Z,4.59
2023-01-09T03:51:49.207Z,4.58
2023-01-09T03:54:16.751Z,4.56
2023-01-09T03:56:44.522Z,4.53
2023-01-09T03:59:12.039Z,4.47
2023-01-09T04:01:39.812Z,4.53
2023-01-09T04:04:07.727Z,4.52
2023-01-09T04:06:35.296Z,4.53
2023-01-09T04:09:03.073Z,4.56
2023-01-09T04:11:31.002Z,4.55
2023-01-09T04:13:58.536Z,4.57
2023-01-09T04:16:26.106Z,4.64
2023-01-09T04:18:53.987Z,4.66
2023-01-09T04:21:21.615Z,4.67
2023-01-09T04:23:49.147Z,4.68
2023-01-09T04:26:16.979Z,4.68
2023-01-09T04:28:44.619Z,4.68
2023-01-09T04:31:12.182Z,4.66
2023-01-09T04:33:44.113Z,4.64
2023-01-09T04:36:11.850Z,4.67
2023-01-09T04:38:39.533Z,4.66
2023-01-09T04:41:07.756Z,4.60
2023-01-09T04:43:35.270Z,4.60
2023-01-09T04:46:03.458Z,4.63
2023-01-09T04:48:31.364Z,4.62
2023-01-09T04:50:58.890Z,4.62
2023-01-09T04:53:26.448Z,4.61
2023-01-09T04:55:54.277Z,4.62
2023-01-09T04:58:21.913Z,4.60
2023-01-09T05:00:50.172Z,4.60
2023-01-09T05:03:18.242Z,4.61
2023-01-09T05:05:45.715Z,4.61
2023-01-09T05:08:13.244Z,4.60
2023-01-09T05:10:41.166Z,4.60
2023-01-09T05:13:08.728Z,4.60
2023-01-09T05:15:36.273Z,4.60
2023-01-09T05:18:04.092Z,4.61
2023-01-09T05:20:31.646Z,4.62
2023-01-09T05:22:59.180Z,4.65
2023-01-09T05:25:27.018Z,4.68
2023-01-09T05:27:54.530Z,4.70
2023-01-09T05:30:22.093Z,4.74
2023-01-09T05:32:49.822Z,4.76
2023-01-09T05:35:17.366Z,4.77
2023-01-09T05:37:45.303Z,4.80
2023-01-09T05:40:14.190Z,4.83
2023-01-09T05:42:44.190Z,4.82
2023-01-09T05:45:12.125Z,4.84
2023-01-09T05:47:40.432Z,4.83
2023-01-09T05:50:08.587Z,4.84
2023-01-09T05:52:36.193Z,4.87
2023-01-09T05:55:05.904Z,4.89
2023-01-09T05:57:33.853Z,4.93
2023-01-09T06:00:01.349Z,4.91
2023-01-09T06:02:29.103Z,4.95
2023-01-09T06:04:57.027Z,4.97
2023-01-09T06:07:24.620Z,5.00
2023-01-09T06:09:52.252Z,4.98
2023-01-09T06:12:20.180Z,5.05
2023-01-09T06:14:47.777Z,5.03
2023-01-09T06:17:15.330Z,5.04
2023-01-09T06:19:43.303Z,5.02
2023-01-09T06:22:11.028Z,4.96
2023-01-09T06:24:38.537Z,5.00
2023-01-09T06:27:06.809Z,5.02
2023-01-09T06:29:34.251Z,5.00
2023-01-09T06:32:01.762Z,5.00
2023-01-09T06:34:29.630Z,4.95
2023-01-09T06:36:57.391Z,4.97
2023-01-09T06:39:25.193Z,4.96
2023-01-09T06:41:53.132Z,5.01
2023-01-09T06:44:20.727Z,5.00
2023-01-09T06:46:48.295Z,5.02
2023-01-09T06:49:18.085Z,4.95
2023-01-09T06:51:45.894Z,4.99
2023-01-09T06:54:13.568Z,4.99
2023-01-09T06:56:41.449Z,4.96
2023-01-09T06:59:09.777Z,4.99
2023-01-09T07:01:39.929Z,5.00
2023-01-09T07:04:10.358Z,5.05
2023-01-09T07:06:38.434Z,5.09
2023-01-09T07:09:06.320Z,5.10
2023-01-09T07:11:34.229Z,5.13
2023-01-09T07:14:02.195Z,5.19
2023-01-09T07:16:30.068Z,5.23
2023-01-09T07:18:57.872Z,5.30
2023-01-09T07:21:25.574Z,5.28
2023-01-09T07:23:53.402Z,5.31
2023-01-09T07:26:21.286Z,5.35
2023-01-09T07:28:49.132Z,5.42
2023-01-09T07:31:16.900Z,5.44
2023-01-09T07:33:44.875Z,5.47
2023-01-09T07:36:12.494Z,5.50
2023-01-09T07:38:40.413Z,5.52
2023-01-09T07:41:10.689Z,5.55
2023-01-09T07:43:38.995Z,5.58
2023-01-09T07:46:06.788Z,5.63
2023-01-09T07:48:34.792Z,5.63
2023-01-09T07:51:02.383Z,5.69
2023-01-09T07:53:29.903Z,5.67
2023-01-09T07:55:57.823Z,5.75
2023-01-09T07:58:25.488Z,5.77
2023-01-09T08:00:53.141Z,5.79
2023-01-09T08:03:21.023Z,5.79
2023-01-09T08:05:51.264Z,5.80
2023-01-09T08:08:19.141Z,5.80
2023-01-09T08:10:47.120Z,5.81
2023-01-09T08:13:14.735Z,5.84
2023-01-09T08:15:42.494Z,5.77
2023-01-09T08:18:10.777Z,5.86
2023-01-09T08:20:38.333Z,5.87
2023-01-09T08:23:05.867Z,5.86
2023-01-09T08:25:33.705Z,5.90
2023-01-09T08:28:01.499Z,5.94
2023-01-09T08:30:29.902Z,5.99
2023-01-09T08:32:57.735Z,6.02
2023-01-09T08:35:25.480Z,6.14
2023-01-09T08:37:54.871Z,6.11
2023-01-09T08:40:23.169Z,6.14
2023-01-09T08:43:09.411Z,6.14
2023-01-09T08:45:55.430Z,6.17
2023-01-09T08:48:23.057Z,6.14
2023-01-09T08:50:51.111Z,6.25
2023-01-09T08:53:18.718Z,6.22
2023-01-09T08:55:46.244Z,6.18
2023-01-09T08:58:14.326Z,6.05
2023-01-09T09:00:42.343Z,6.05
2023-01-09T09:03:11.800Z,6.03
2023-01-09T09:05:39.776Z,6.02
2023-01-09T09:08:07.487Z,5.96
2023-01-09T09:10:35.122Z,6.05
2023-01-09T09:13:03.102Z,5.92
2023-01-09T09:15:30.869Z,6.01
2023-01-09T09:18:03.402Z,5.98
2023-01-09T09:20:34.160Z,5.83
2023-01-09T09:23:01.963Z,5.95
2023-01-09T09:25:29.829Z,5.85
2023-01-09T09:27:58.065Z,5.86
2023-01-09T09:30:26.193Z,5.88
2023-01-09T09:32:57.800Z,5.89
2023-01-09T09:35:25.447Z,5.92
2023-01-09T09:37:57.911Z,5.94
2023-01-09T09:41:05.187Z,5.92
2023-01-09T09:43:57.530Z,5.96
2023-01-09T09:46:43.712Z,5.85
2023-01-09T09:49:50.054Z,5.97
2023-01-09T09:52:42.231Z,5.94
2023-01-09T09:55:38.482Z,5.89
2023-01-09T09:58:21.908Z,5.94
2023-01-09T10:00:50.405Z,5.86
2023-01-09T10:03:52.676Z,5.92
2023-01-09T10:06:47.729Z,5.86
2023-01-09T10:09:46.175Z,5.87
2023-01-09T10:12:27.450Z,5.88
2023-01-09T10:14:59.894Z,5.86
2023-01-09T10:17:41.392Z,5.92
2023-01-09T10:20:24.691Z,5.88
2023-01-09T10:23:14.972Z,5.95
2023-01-09T10:25:46.607Z,5.83
2023-01-09T10:28:40.284Z,5.88
2023-01-09T10:31:18.128Z,5.97
2023-01-09T10:34:02.030Z,6.06
2023-01-09T10:36:43.159Z,6.04
2023-01-09T10:39:17.856Z,6.10
2023-01-09T10:42:04.221Z,6.19
2023-01-09T10:44:39.052Z,6.27
2023-01-09T10:47:20.592Z,6.37
2023-01-09T10:49:50.280Z,6.43
2023-01-09T10:52:20.722Z,6.52
2023-01-09T10:55:04.177Z,6.53
2023-01-09T10:57:54.218Z,6.57
2023-01-09T11:00:24.082Z,6.66
2023-01-09T11:02:53.438Z,6.66
2023-01-09T11:05:23.679Z,6.67
2023-01-09T11:07:56.037Z,6.69
2023-01-09T11:10:44.919Z,6.69
2023-01-09T11:13:21.831Z,6.71
2023-01-09T11:16:17.993Z,6.69
2023-01-09T11:18:55.766Z,6.74
2023-01-09T11:21:33.200Z,6.65
2023-01-09T11:24:19.002Z,6.75
2023-01-09T11:27:13.454Z,6.78
2023-01-09T11:29:41.743Z,6.81
2023-01-09T11:32:25.232Z,6.85
2023-01-09T11:35:17.709Z,6.89
2023-01-09T11:37:52.372Z,6.84
2023-01-09T11:40:58.976Z,6.96
2023-01-09T11:43:41.086Z,6.98
2023-01-09T11:46:30.965Z,7.00
2023-01-09T11:49:01.025Z,7.03
2023-01-09T11:51:34.282Z,7.03
2023-01-09T11:54:02.238Z,7.05
2023-01-09T11:56:30.025Z,7.07
2023-01-09T11:58:59.793Z,7.09
2023-01-09T12:01:49.787Z,7.09
2023-01-09T12:04:56.844Z,7.08
2023-01-09T12:07:55.087Z,7.18
2023-01-09T12:10:49.847Z,7.25
2023-01-09T12:13:54.781Z,7.26
2023-01-09T12:17:12.652Z,7.28
2023-01-09T12:20:13.651Z,7.26
2023-01-09T12:23:18.460Z,7.24
2023-01-09T12:26:06.927Z,7.18
2023-01-09T12:28:52.026Z,7.24
2023-01-09T12:31:39.049Z,7.23
2023-01-09T12:34:20.940Z,7.21
2023-01-09T12:37:20.423Z,7.22
2023-01-09T12:40:13.833Z,7.21
2023-01-09T12:42:59.892Z,7.22
2023-01-09T12:45:31.634Z,7.21
2023-01-09T12:48:21.090Z,7.15
2023-01-09T12:51:09.882Z,7.05
2023-01-09T12:53:57.537Z,7.10
2023-01-09T12:56:31.244Z,7.10
2023-01-09T12:59:32.214Z,7.11
2023-01-09T13:02:21.924Z,7.07
2023-01-09T13:04:59.749Z,7.06
2023-01-09T13:07:36.179Z,7.09
2023-01-09T13:10:16.363Z,7.07
2023-01-09T13:12:45.237Z,7.10
2023-01-09T13:15:32.269Z,7.12
2023-01-09T13:18:14.554Z,7.13
2023-01-09T13:20:45.355Z,7.13
2023-01-09T13:23:47.179Z,7.11
2023-01-09T13:26:26.689Z,7.05
2023-01-09T13:29:00.656Z,7.09
2023-01-09T13:31:38.884Z,7.06
2023-01-09T13:34:21.508Z,7.08
2023-01-09T13:36:54.440Z,7.08
2023-01-09T13:39:27.650Z,7.10
2023-01-09T13:42:23.728Z,7.10
2023-01-09T13:44:54.826Z,7.08
2023-01-09T13:47:28.351Z,7.06
2023-01-09T13:50:21.238Z,7.03
2023-01-09T13:52:49.451Z,7.02
2023-01-09T13:55:17.519Z,7.05
2023-01-09T13:58:08.646Z,7.03
2023-01-09T14:00:36.420Z,7.03
2023-01-09T14:03:26.232Z,7.04
2023-01-09T14:05:54.283Z,6.96
2023-01-09T14:08:23.957Z,7.02
2023-01-09T14:11:01.126Z,6.98
2023-01-09T14:13:39.352Z,7.00
2023-01-09T14:16:20.604Z,6.96
2023-01-09T14:19:04.978Z,6.99
2023-01-09T14:21:52.834Z,6.94
2023-01-09T14:24:52.595Z,6.98
2023-01-09T14:28:03.447Z,6.96
2023-01-09T14:30:49.865Z,6.93
2023-01-09T14:33:17.532Z,6.94
2023-01-09T14:35:51.521Z,6.92
2023-01-09T14:38:32.628Z,6.89
2023-01-09T14:41:15.621Z,6.91
2023-01-09T14:43:54.316Z,6.95
2023-01-09T14:46:22.476Z,6.93
2023-01-09T14:49:30.517Z,6.92
2023-01-09T14:52:01.187Z,6.93
2023-01-09T14:54:33.215Z,6.87
2023-01-09T14:57:03.949Z,6.91
2023-01-09T14:59:31.586Z,6.88
2023-01-09T15:01:59.563Z,6.86
2023-01-09T15:04:38.850Z,6.86
2023-01-09T15:07:06.699Z,6.87
2023-01-09T15:09:43.838Z,6.85
2023-01-09T15:12:22.129Z,6.85
2023-01-09T15:14:55.948Z,6.77
2023-01-09T15:17:29.011Z,6.83
2023-01-09T15:19:58.483Z,6.83
2023-01-09T15:22:30.156Z,6.83
2023-01-09T15:24:59.412Z,6.83
2023-01-09T15:27:27.042Z,6.84
2023-01-09T15:29:54.567Z,6.83
2023-01-09T15:32:27.512Z,6.83
2023-01-09T15:34:56.083Z,6.82
2023-01-09T15:37:30.061Z,6.83
2023-01-09T15:39:59.978Z,6.77
2023-01-09T15:42:49.471Z,6.78
2023-01-09T15:45:26.516Z,6.80
2023-01-09T15:47:55.171Z,6.78
2023-01-09T15:50:28.029Z,6.77
2023-01-09T15:52:56.520Z,6.69
2023-01-09T15:55:35.477Z,6.75
2023-01-09T15:58:05.274Z,6.73
2023-01-09T16:00:36.277Z,6.68
2023-01-09T16:03:16.850Z,6.58
2023-01-09T16:05:47.439Z,6.62
2023-01-09T16:08:20.874Z,6.56
2023-01-09T16:10:57.558Z,6.58
2023-01-09T16:13:27.971Z,6.55
2023-01-09T16:15:56.303Z,6.60
2023-01-09T16:18:32.657Z,6.58
2023-01-09T16:21:22.727Z,6.59
2023-01-09T16:23:55.544Z,6.57
2023-01-09T16:26:25.500Z,6.55
2023-01-09T16:28:54.225Z,6.51
2023-01-09T16:31:27.457Z,6.49
2023-01-09T16:34:06.464Z,6.48
2023-01-09T16:36:35.179Z,6.50
2023-01-09T16:39:06.775Z,6.48
2023-01-09T16:42:01.568Z,6.49
2023-01-09T16:44:29.355Z,6.49
2023-01-09T16:46:57.291Z,6.50
2023-01-09T16:49:29.387Z,6.48
2023-01-09T16:51:57.419Z,6.49
2023-01-09T16:54:24.938Z,6.49
2023-01-09T16:56:53.596Z,6.51
2023-01-09T16:59:26.317Z,6.49
2023-01-09T17:01:54.333Z,6.50
2023-01-09T17:04:26.916Z,6.44
2023-01-09T17:06:54.396Z,6.48
2023-01-09T17:09:27.639Z,6.49
2023-01-09T17:11:55.435Z,6.44
2023-01-09T17:14:23.234Z,6.46
2023-01-09T17:16:50.843Z,6.42
2023-01-09T17:19:20.871Z,6.44
2023-01-09T17:21:48.690Z,6.41
2023-01-09T17:24:35.017Z,6.39
2023-01-09T17:27:22.115Z,6.36
2023-01-09T17:29:49.703Z,6.40
2023-01-09T17:32:19.212Z,6.41
2023-01-09T17:34:47.113Z,6.37
2023-01-09T17:37:16.047Z,6.33
2023-01-09T17:39:44.844Z,6.35
2023-01-09T17:42:12.662Z,6.35
2023-01-09T17:44:40.295Z,6.33
2023-01-09T17:47:14.923Z,6.29
2023-01-09T17:49:42.633Z,6.27
2023-01-09T17:52:10.600Z,6.29
2023-01-09T17:54:38.585Z,6.28
2023-01-09T17:57:07.510Z,6.16
2023-01-09T17:59:35.636Z,6.19
2023-01-09T18:02:03.235Z,6.17
2023-01-09T18:04:31.149Z,6.21
2023-01-09T18:06:58.611Z,6.21
2023-01-09T18:09:26.228Z,6.21
2023-01-09T18:11:54.130Z,6.14
2023-01-09T18:14:21.949Z,6.13
2023-01-09T18:16:49.597Z,6.12
2023-01-09T18:19:17.517Z,6.12
2023-01-09T18:21:46.860Z,6.06
2023-01-09T18:24:14.422Z,6.05
2023-01-09T18:26:42.371Z,6.04
2023-01-09T18:29:11.468Z,6.00
2023-01-09T18:31:39.799Z,5.99
2023-01-09T18:34:09.145Z,5.96
2023-01-09T18:36:36.843Z,5.94
2023-01-09T18:39:05.530Z,5.93
2023-01-09T18:41:33.575Z,5.93
2023-01-09T18:44:01.753Z,5.91
2023-01-09T18:46:32.469Z,5.89
2023-01-09T18:49:04.323Z,5.88
2023-01-09T18:51:34.203Z,5.86
2023-01-09T18:54:02.318Z,5.88
2023-01-09T18:56:30.139Z,5.87
2023-01-09T18:58:58.262Z,5.86
2023-01-09T19:01:28.224Z,5.85
2023-01-09T19:03:57.358Z,5.84
2023-01-09T19:06:26.187Z,5.74
2023-01-09T19:08:55.003Z,5.79
2023-01-09T19:11:24.254Z,5.75
2023-01-09T19:13:52.002Z,5.77
2023-01-09T19:16:20.105Z,5.76
2023-01-09T19:18:48.216Z,5.73
2023-01-09T19:21:19.203Z,5.73
2023-01-09T19:23:47.977Z,5.72
2023-01-09T19:26:21.504Z,5.65
2023-01-09T19:28:51.852Z,5.66
2023-01-09T19:31:22.841Z,5.62
2023-01-09T19:33:51.875Z,5.65
2023-01-09T19:36:19.912Z,5.63
2023-01-09T19:38:47.934Z,5.63
2023-01-09T19:41:19.454Z,5.63
2023-01-09T19:43:47.825Z,5.58
2023-01-09T19:46:18.559Z,5.59
2023-01-09T19:48:47.490Z,5.50
2023-01-09T19:51:17.996Z,5.57
2023-01-09T19:53:51.373Z,5.56
2023-01-09T19:56:22.201Z,5.55
2023-01-09T19:59:03.852Z,5.56
2023-01-09T20:01:35.254Z,5.56
2023-01-09T20:04:07.846Z,5.51
2023-01-09T20:06:36.138Z,5.53
2023-01-09T20:09:05.160Z,5.50
2023-01-09T20:11:33.801Z,5.52
2023-01-09T20:14:01.416Z,5.52
2023-01-09T20:16:30.636Z,5.49
2023-01-09T20:19:00.439Z,5.46
2023-01-09T20:21:29.192Z,5.48
2023-01-09T20:23:59.689Z,5.43
2023-01-09T20:26:28.725Z,5.46
2023-01-09T20:28:57.213Z,5.46
2023-01-09T20:31:28.184Z,5.44
2023-01-09T20:33:55.952Z,5.42
2023-01-09T20:36:27.977Z,5.44
2023-01-09T20:39:01.268Z,5.43
2023-01-09T20:41:31.414Z,5.42
2023-01-09T20:44:07.000Z,5.42
2023-01-09T20:46:38.189Z,5.43
2023-01-09T20:49:07.623Z,5.43
2023-01-09T20:51:36.101Z,5.38
2023-01-09T20:54:04.143Z,5.38
2023-01-09T20:56:32.236Z,5.37
2023-01-09T20:59:00.290Z,5.37
2023-01-09T21:01:28.548Z,5.45
2023-01-09T21:03:58.063Z,5.44
2023-01-09T21:06:26.246Z,5.41
2023-01-09T21:08:53.999Z,5.44
2023-01-09T21:11:22.211Z,5.45
2023-01-09T21:13:50.063Z,5.39
2023-01-09T21:16:21.496Z,5.42
2023-01-09T21:18:49.937Z,5.44
2023-01-09T21:21:23.391Z,5.46
2023-01-09T21:23:53.812Z,5.45
2023-01-09T21:26:24.858Z,5.45
2023-01-09T21:28:55.080Z,5.48
2023-01-09T21:31:33.105Z,5.49
2023-01-09T21:34:03.766Z,5.51
2023-01-09T21:36:31.691Z,5.52
2023-01-09T21:39:01.162Z,5.52
2023-01-09T21:41:49.205Z,5.52
2023-01-09T21:44:35.040Z,5.49
2023-01-09T21:47:03.274Z,5.56
2023-01-09T21:49:34.999Z,5.60
2023-01-09T21:52:06.019Z,5.61
2023-01-09T21:54:34.133Z,5.60
2023-01-09T21:57:02.102Z,5.63
2023-01-09T21:59:33.355Z,5.70
2023-01-09T22:02:00.878Z,5.71
2023-01-09T22:04:29.244Z,5.72
2023-01-09T22:06:57.109Z,5.70
2023-01-09T22:09:24.814Z,5.67
2023-01-09T22:11:52.735Z,5.69
2023-01-09T22:14:20.602Z,5.69
2023-01-09T22:16:48.475Z,5.68
2023-01-09T22:19:19.828Z,5.68
2023-01-09T22:21:47.897Z,5.65
2023-01-09T22:24:17.631Z,5.65
2023-01-09T22:26:45.614Z,5.66
2023-01-09T22:29:13.716Z,5.64
2023-01-09T22:31:43.094Z,5.66
2023-01-09T22:34:14.844Z,5.67
2023-01-09T22:36:43.903Z,5.67
2023-01-09T22:39:13.482Z,5.66
2023-01-09T22:41:41.625Z,5.66
2023-01-09T22:44:10.820Z,5.66
2023-01-09T22:46:39.239Z,5.64
2023-01-09T22:49:06.745Z,5.62
2023-01-09T22:51:34.794Z,5.65
2023-01-09T22:54:02.588Z,5.61
2023-01-09T22:56:32.217Z,5.63
2023-01-09T22:59:01.133Z,5.64
2023-01-09T23:01:29.349Z,5.64
2023-01-09T23:03:56.959Z,5.62
2023-01-09T23:06:25.410Z,5.64
2023-01-09T23:08:53.287Z,5.62
2023-01-09T23:11:44.591Z,5.63
2023-01-09T23:14:13.013Z,5.64
2023-01-09T23:16:40.607Z,5.63
2023-01-09T23:19:17.395Z,5.65
2023-01-09T23:21:45.455Z,5.67
2023-01-09T23:24:15.563Z,5.63
2023-01-09T23:26:44.145Z,5.65
2023-01-09T23:29:12.778Z,5.64
2023-01-09T23:31:40.540Z,5.65
2023-01-09T23:34:08.456Z,5.61
2023-01-09T23:36:36.418Z,5.65
2023-01-09T23:39:08.825Z,5.65
2023-01-09T23:41:55.974Z,5.65
2023-01-09T23:44:23.540Z,5.67
2023-01-09T23:46:51.496Z,5.67
2023-01-09T23:49:19.366Z,5.68
2023-01-09T23:51:47.227Z,5.68
2023-01-09T23:54:16.311Z,5.69
2023-01-09T23:56:43.860Z,5.62
2023-01-09T23:59:12.887Z,5.68
